Time;durP1;ratioP1;P1;durP2;ratioP2;P2;SDS_P1;SDS_P2;PMS_P1;PMS_P2;Temp;Humidity;BMP_temperature;BMP_pressure;BME280_temperature;BME280_humidity;BME280_pressure;Samples;Min_cycle;Max_cycle;Signal;HPM_P1;HPM_P2
2022/11/06 00:00:42;;;;;;;9.95;7.18;;;10.00;99.90;;;;;;5063310;28;20502;-79
2022/11/06 00:03:08;;;;;;;13.38;8.25;;;10.10;99.90;;;;;;5031558;28;20072;-79
2022/11/06 00:08:36;;;;;;;15.50;7.03;;;9.90;99.90;;;;;;5044761;28;20132;-80
2022/11/06 00:11:08;;;;;;;14.80;7.40;;;9.90;99.90;;;;;;5037870;28;20095;-82
2022/11/06 00:13:34;;;;;;;15.18;7.25;;;9.80;99.90;;;;;;5030455;28;20107;-80
2022/11/06 00:16:05;;;;;;;13.82;8.10;;;9.80;99.90;;;;;;5031916;28;20048;-81
2022/11/06 00:18:31;;;;;;;15.40;7.53;;;9.80;99.90;;;;;;5022935;28;20045;-80
2022/11/06 00:20:57;;;;;;;12.73;7.97;;;9.80;99.90;;;;;;5030875;28;20053;-80
2022/11/06 00:23:22;;;;;;;12.75;7.63;;;9.80;99.90;;;;;;5031032;28;20517;-80
2022/11/06 00:25:51;;;;;;;14.20;7.63;;;9.80;99.90;;;;;;5053102;28;20056;-81
2022/11/06 00:28:18;;;;;;;13.10;8.18;;;9.80;99.90;;;;;;5021267;28;20092;-80
2022/11/06 00:30:44;;;;;;;17.95;9.25;;;9.80;99.90;;;;;;5055041;28;20647;-80
2022/11/06 00:33:09;;;;;;;15.13;9.13;;;9.70;99.90;;;;;;5046035;28;20112;-80
2022/11/06 00:35:38;;;;;;;17.60;9.60;;;9.60;99.90;;;;;;5048463;28;20041;-85
2022/11/06 00:38:03;;;;;;;19.73;9.32;;;9.50;99.90;;;;;;5046486;28;20056;-81
2022/11/06 00:40:29;;;;;;;16.33;10.57;;;9.40;99.90;;;;;;5031497;28;20045;-81
2022/11/06 00:42:56;;;;;;;17.20;10.32;;;9.30;99.90;;;;;;5014722;28;20136;-80
2022/11/06 00:45:21;;;;;;;19.15;9.57;;;9.20;99.90;;;;;;5048257;28;20048;-80
2022/11/06 00:47:47;;;;;;;16.92;9.77;;;9.10;99.90;;;;;;5013796;28;20402;-80
2022/11/06 00:50:13;;;;;;;17.60;9.30;;;9.10;99.90;;;;;;5064512;28;20082;-83
2022/11/06 00:52:38;;;;;;;16.45;10.23;;;9.10;99.90;;;;;;5063663;28;20136;-86
2022/11/06 00:55:04;;;;;;;16.80;9.80;;;9.10;99.90;;;;;;5015454;28;20094;-81
2022/11/06 00:57:31;;;;;;;14.82;10.18;;;9.00;99.90;;;;;;5046877;28;20120;-81
2022/11/06 00:59:56;;;;;;;17.17;9.50;;;9.00;99.90;;;;;;5030243;28;20045;-80
2022/11/06 01:02:22;;;;;;;15.10;9.45;;;9.00;99.90;;;;;;5030861;28;20052;-80
2022/11/06 01:04:47;;;;;;;15.07;9.07;;;9.00;99.90;;;;;;5047202;28;20049;-83
2022/11/06 01:07:13;;;;;;;15.68;10.25;;;9.00;99.90;;;;;;5045988;28;20048;-81
2022/11/06 01:09:39;;;;;;;16.55;9.82;;;9.00;99.90;;;;;;5047350;28;20052;-84
2022/11/06 01:12:05;;;;;;;17.80;10.48;;;9.00;99.90;;;;;;5013294;28;20044;-80
2022/11/06 01:14:30;;;;;;;19.88;9.60;;;8.90;99.90;;;;;;5030885;28;20102;-81
2022/11/06 01:16:56;;;;;;;17.63;9.43;;;9.00;99.90;;;;;;5030365;28;20049;-80
2022/11/06 01:19:22;;;;;;;22.65;9.77;;;9.00;99.90;;;;;;5048564;28;20049;-80
2022/11/06 01:21:51;;;;;;;20.13;10.65;;;9.00;99.90;;;;;;5065812;28;20047;-80
2022/11/06 01:24:23;;;;;;;19.92;10.85;;;8.90;99.90;;;;;;5033155;28;20502;-80
2022/11/06 01:26:49;;;;;;;17.42;11.35;;;9.00;99.90;;;;;;5057102;28;20060;-81
2022/11/06 01:29:17;;;;;;;26.77;12.50;;;8.90;99.90;;;;;;5036098;28;20041;-81
2022/11/06 01:31:43;;;;;;;25.65;13.07;;;9.00;99.90;;;;;;5047828;28;20081;-85
2022/11/06 01:34:10;;;;;;;24.63;12.27;;;9.00;99.90;;;;;;5052054;28;20099;-80
2022/11/06 01:36:36;;;;;;;22.05;12.60;;;8.90;99.90;;;;;;5037009;28;20099;-80
2022/11/06 01:39:05;;;;;;;28.13;13.55;;;9.00;99.90;;;;;;5008575;28;20397;-81
2022/11/06 01:41:46;;;;;;;23.85;13.43;;;8.90;99.90;;;;;;5040089;28;20394;-80
2022/11/06 01:44:40;;;;;;;23.92;13.32;;;8.90;99.90;;;;;;5042987;28;20398;-81
2022/11/06 01:47:27;;;;;;;19.48;12.18;;;8.90;99.90;;;;;;5043917;28;20504;-80
2022/11/06 01:49:56;;;;;;;24.92;13.55;;;9.00;99.90;;;;;;5049377;28;20056;-80
2022/11/06 01:52:23;;;;;;;26.10;13.65;;;8.90;99.90;;;;;;5028962;28;20041;-80
2022/11/06 01:54:53;;;;;;;26.08;13.00;;;8.90;99.90;;;;;;5033388;28;20064;-80
2022/11/06 01:57:19;;;;;;;24.95;13.88;;;9.00;99.90;;;;;;5049610;28;20045;-80
2022/11/06 01:59:45;;;;;;;23.52;14.70;;;8.90;99.90;;;;;;5032973;28;20115;-80
2022/11/06 02:02:13;;;;;;;22.10;13.73;;;8.90;99.90;;;;;;5033131;28;20040;-80
2022/11/06 02:04:44;;;;;;;23.55;14.07;;;8.90;99.90;;;;;;5030975;28;20053;-80
2022/11/06 02:07:11;;;;;;;28.10;14.18;;;8.90;99.90;;;;;;5030489;28;20045;-80
2022/11/06 02:09:37;;;;;;;23.90;13.35;;;8.80;99.90;;;;;;5042084;28;20045;-79
2022/11/06 02:12:43;;;;;;;20.80;13.23;;;8.80;99.90;;;;;;5035467;28;20468;-80
2022/11/06 02:15:17;;;;;;;22.73;13.30;;;8.80;99.90;;;;;;5021660;28;20053;-81
2022/11/06 02:17:58;;;;;;;20.88;12.95;;;8.80;99.90;;;;;;5041638;28;20131;-82
2022/11/06 02:21:00;;;;;;;22.48;14.73;;;8.80;99.90;;;;;;5049787;28;20045;-81
2022/11/06 02:23:34;;;;;;;27.33;14.85;;;8.80;99.90;;;;;;5029114;28;20083;-81
2022/11/06 02:26:23;;;;;;;21.30;13.63;;;8.80;99.90;;;;;;5039017;28;20136;-81
2022/11/06 02:29:12;;;;;;;25.02;14.38;;;8.80;99.90;;;;;;5051258;28;20044;-81
2022/11/06 02:31:41;;;;;;;23.08;14.73;;;8.80;99.90;;;;;;5048344;28;20916;-81
2022/11/06 02:34:13;;;;;;;26.52;14.95;;;8.80;99.90;;;;;;5033393;28;20128;-80
2022/11/06 02:36:46;;;;;;;25.95;14.65;;;8.80;99.90;;;;;;5050202;28;20595;-78
2022/11/06 02:39:16;;;;;;;30.52;16.20;;;8.80;99.90;;;;;;5049181;28;20041;-77
2022/11/06 02:41:45;;;;;;;28.13;15.25;;;8.80;99.90;;;;;;5033077;28;20045;-77
2022/11/06 02:44:19;;;;;;;22.15;14.38;;;8.80;99.90;;;;;;5049954;28;20052;-78
2022/11/06 02:46:58;;;;;;;27.17;15.27;;;8.80;99.90;;;;;;5047996;28;20524;-78
2022/11/06 02:49:37;;;;;;;24.00;14.60;;;8.80;99.90;;;;;;5030351;28;20118;-79
2022/11/06 02:52:15;;;;;;;24.55;14.23;;;8.80;99.90;;;;;;5032486;28;20099;-81
2022/11/06 02:54:47;;;;;;;22.92;14.68;;;8.80;99.90;;;;;;5033347;28;20049;-77
2022/11/06 02:57:15;;;;;;;21.08;14.15;;;8.80;99.90;;;;;;5036461;28;20376;-78
2022/11/06 02:59:55;;;;;;;26.02;14.40;;;8.80;99.90;;;;;;5032102;28;20139;-79
2022/11/06 03:02:30;;;;;;;24.33;14.13;;;8.70;99.90;;;;;;5038972;28;20498;-78
2022/11/06 03:05:08;;;;;;;21.05;14.18;;;8.80;99.90;;;;;;5042682;28;20449;-85
2022/11/06 03:07:39;;;;;;;22.17;13.63;;;8.80;99.90;;;;;;5040847;28;20068;-81
2022/11/06 03:10:06;;;;;;;24.92;13.80;;;8.70;99.90;;;;;;5020126;28;20084;-79
2022/11/06 03:12:44;;;;;;;24.98;14.57;;;8.70;99.90;;;;;;5034898;28;20052;-79
2022/11/06 03:15:37;;;;;;;24.55;14.02;;;8.80;99.90;;;;;;5034477;28;20053;-79
2022/11/06 03:18:17;;;;;;;21.98;13.60;;;8.80;99.90;;;;;;5032052;28;20414;-82
2022/11/06 03:21:29;;;;;;;25.40;13.52;;;8.80;99.90;;;;;;5029513;28;20048;-80
2022/11/06 03:24:16;;;;;;;25.38;13.43;;;8.70;99.90;;;;;;5002307;28;20068;-78
2022/11/06 03:26:50;;;;;;;23.08;13.07;;;8.70;99.90;;;;;;5048245;28;20146;-78
2022/11/06 03:29:33;;;;;;;27.05;14.50;;;8.70;99.90;;;;;;5023159;28;20045;-78
2022/11/06 03:32:28;;;;;;;26.88;13.65;;;8.70;99.90;;;;;;5052507;28;20048;-84
2022/11/06 03:35:16;;;;;;;27.50;14.10;;;8.70;99.90;;;;;;5050604;28;20052;-79
2022/11/06 03:37:50;;;;;;;24.55;13.98;;;8.80;99.90;;;;;;5048751;28;20044;-78
2022/11/06 03:40:20;;;;;;;23.77;14.05;;;8.70;99.90;;;;;;5048376;28;20053;-78
2022/11/06 03:42:48;;;;;;;26.05;15.00;;;8.70;99.90;;;;;;5048259;28;20390;-78
2022/11/06 03:45:19;;;;;;;28.50;14.05;;;8.80;99.90;;;;;;5021031;28;20127;-78
2022/11/06 03:47:54;;;;;;;26.75;14.25;;;8.80;99.90;;;;;;5039135;28;20045;-78
2022/11/06 03:50:46;;;;;;;26.67;14.95;;;8.70;99.90;;;;;;5049533;28;20068;-78
2022/11/06 03:53:27;;;;;;;27.50;13.90;;;8.70;99.90;;;;;;5050207;28;20493;-79
2022/11/06 03:56:07;;;;;;;31.25;13.57;;;8.70;99.90;;;;;;5045031;28;20037;-78
2022/11/06 03:58:38;;;;;;;29.85;13.73;;;8.70;99.90;;;;;;5046103;28;20052;-78
2022/11/06 04:01:07;;;;;;;23.15;12.95;;;8.70;99.90;;;;;;5048217;28;20061;-83
2022/11/06 04:04:04;;;;;;;22.27;13.93;;;8.70;99.90;;;;;;5045079;28;20044;-79
2022/11/06 04:06:33;;;;;;;;;;;8.70;99.90;;;;;;5049522;28;20052;-77
2022/11/06 04:14:37;;;;;;;28.13;14.40;;;8.70;99.90;;;;;;5032674;28;20581;-79
2022/11/06 04:17:08;;;;;;;25.60;13.95;;;8.70;99.90;;;;;;5047498;28;20055;-81
2022/11/06 04:19:33;;;;;;;26.20;13.75;;;8.70;99.90;;;;;;5048938;28;20064;-78
2022/11/06 04:22:27;;;;;;;23.65;14.38;;;8.80;99.90;;;;;;5056763;28;20056;-78
2022/11/06 04:28:05;;;;;;;23.60;13.10;;;8.80;99.90;;;;;;5046285;28;20103;-78
2022/11/06 04:30:52;;;;;;;23.10;13.50;;;8.70;99.90;;;;;;5030525;28;20489;-78
2022/11/06 04:33:35;;;;;;;29.00;12.32;;;8.80;99.90;;;;;;5047819;28;20044;-77
2022/11/06 04:36:25;;;;;;;23.27;13.25;;;8.70;99.90;;;;;;5048291;28;20127;-78
2022/11/06 04:39:00;;;;;;;24.45;12.77;;;8.70;99.90;;;;;;5030051;28;20077;-79
2022/11/06 04:41:33;;;;;;;22.58;13.05;;;8.70;99.90;;;;;;5031247;28;20137;-78
2022/11/06 04:44:22;;;;;;;22.20;12.30;;;8.70;99.90;;;;;;5060656;28;20106;-79
2022/11/06 04:46:56;;;;;;;23.75;12.10;;;8.70;99.90;;;;;;5050187;28;20084;-78
2022/11/06 04:49:23;;;;;;;23.33;12.43;;;8.70;99.90;;;;;;5043747;28;20491;-78
2022/11/06 04:51:50;;;;;;;27.65;12.63;;;8.70;99.90;;;;;;5015432;28;20538;-79
2022/11/06 04:54:16;;;;;;;22.05;12.85;;;8.70;99.90;;;;;;5029811;28;20076;-79
2022/11/06 04:56:42;;;;;;;22.35;12.98;;;8.70;99.90;;;;;;5048752;28;20044;-79
2022/11/06 04:59:13;;;;;;;21.77;11.48;;;8.70;99.90;;;;;;5047373;28;20044;-81
2022/11/06 05:01:39;;;;;;;17.83;12.30;;;8.70;99.90;;;;;;5041181;28;20057;-82
2022/11/06 05:04:05;;;;;;;20.42;11.02;;;8.70;99.90;;;;;;5021573;28;20096;-78
2022/11/06 05:06:30;;;;;;;20.80;11.07;;;8.70;99.90;;;;;;5009275;28;20095;-78
2022/11/06 05:08:57;;;;;;;23.92;11.90;;;8.70;99.90;;;;;;5030505;28;20059;-79
2022/11/06 05:11:23;;;;;;;20.55;11.18;;;8.70;99.90;;;;;;5031908;28;20046;-79
2022/11/06 05:13:49;;;;;;;20.67;11.00;;;8.70;99.90;;;;;;5016872;28;20057;-79
2022/11/06 05:16:15;;;;;;;21.88;10.40;;;8.70;99.90;;;;;;5037362;28;20068;-84
2022/11/06 05:18:41;;;;;;;24.02;10.30;;;8.70;99.90;;;;;;5022311;28;20132;-78
2022/11/06 05:23:50;;;;;;;19.35;10.25;;;8.80;99.90;;;;;;5029867;28;20053;-78
2022/11/06 05:26:16;;;;;;;16.25;9.80;;;8.80;99.90;;;;;;5045760;28;20541;-84
2022/11/06 05:28:42;;;;;;;20.63;10.52;;;8.80;99.90;;;;;;5035465;28;20045;-79
2022/11/06 05:31:07;;;;;;;15.65;9.05;;;8.80;99.90;;;;;;5018647;28;20085;-79
2022/11/06 05:33:33;;;;;;;16.52;9.32;;;8.80;99.90;;;;;;5023081;28;20486;-80
2022/11/06 05:36:05;;;;;;;13.65;8.73;;;8.80;99.90;;;;;;5027528;28;20051;-79
2022/11/06 05:38:32;;;;;;;18.15;9.48;;;8.70;99.90;;;;;;5042275;28;20037;-79
2022/11/06 05:40:58;;;;;;;22.70;9.98;;;8.80;99.90;;;;;;5029530;28;20061;-81
2022/11/06 05:43:24;;;;;;;17.15;8.45;;;8.80;99.90;;;;;;5031736;28;20033;-80
2022/11/06 05:45:49;;;;;;;20.35;8.65;;;8.80;99.90;;;;;;5035166;28;20045;-79
2022/11/06 05:48:15;;;;;;;15.60;8.10;;;8.80;99.90;;;;;;5013641;28;20061;-79
2022/11/06 05:50:41;;;;;;;15.00;8.05;;;8.80;99.90;;;;;;5046279;28;20053;-80
2022/11/06 05:53:07;;;;;;;21.95;8.70;;;8.80;99.90;;;;;;5031114;28;20056;-79
2022/11/06 05:55:32;;;;;;;13.40;7.82;;;8.80;99.90;;;;;;5042953;28;20049;-80
2022/11/06 05:57:58;;;;;;;15.20;7.57;;;8.80;99.90;;;;;;5031191;28;20044;-80
2022/11/06 06:00:24;;;;;;;18.92;7.60;;;8.80;99.90;;;;;;5028848;28;20060;-79
2022/11/06 06:02:49;;;;;;;15.00;6.95;;;8.80;99.90;;;;;;5031721;28;20056;-79
2022/11/06 06:05:15;;;;;;;15.20;6.88;;;8.80;99.90;;;;;;5058820;28;20044;-79
2022/11/06 06:07:41;;;;;;;13.95;7.55;;;8.80;99.90;;;;;;5030695;28;20652;-79
2022/11/06 06:10:08;;;;;;;16.15;7.95;;;8.80;99.90;;;;;;5060192;28;20117;-79
2022/11/06 06:12:33;;;;;;;19.67;7.60;;;8.80;99.90;;;;;;5041695;28;20047;-80
2022/11/06 06:14:59;;;;;;;16.50;6.97;;;8.80;99.90;;;;;;5033797;28;20049;-79
2022/11/06 06:17:26;;;;;;;14.75;6.53;;;8.80;99.90;;;;;;5031082;28;20049;-80
2022/11/06 06:19:52;;;;;;;12.77;6.65;;;8.80;99.90;;;;;;5015422;28;20483;-79
2022/11/06 06:22:17;;;;;;;17.05;6.25;;;8.90;99.90;;;;;;5020722;28;20036;-80
2022/11/06 06:24:43;;;;;;;14.05;6.35;;;8.80;99.90;;;;;;5018044;28;20041;-79
2022/11/06 06:27:09;;;;;;;16.58;7.22;;;8.80;99.90;;;;;;5038455;28;20053;-80
2022/11/06 06:29:35;;;;;;;20.15;6.85;;;8.90;99.90;;;;;;5037228;28;20045;-79
2022/11/06 06:32:00;;;;;;;14.30;6.20;;;8.90;99.90;;;;;;5031288;28;20124;-79
2022/11/06 06:34:26;;;;;;;19.92;6.40;;;8.90;99.90;;;;;;5026527;28;20046;-86
2022/11/06 06:36:52;;;;;;;12.13;6.22;;;8.90;99.90;;;;;;5035579;28;20085;-79
2022/11/06 06:39:19;;;;;;;13.00;6.45;;;8.90;99.90;;;;;;5045801;28;20045;-80
2022/11/06 06:41:46;;;;;;;12.75;6.20;;;8.90;99.90;;;;;;5014600;28;20524;-79
2022/11/06 06:44:12;;;;;;;13.88;5.38;;;8.90;99.90;;;;;;5054061;28;20329;-79
2022/11/06 06:46:38;;;;;;;11.10;5.50;;;8.90;99.90;;;;;;5027375;28;20592;-80
2022/11/06 06:49:04;;;;;;;14.98;5.78;;;9.00;99.90;;;;;;5047625;28;20052;-79
2022/11/06 06:51:29;;;;;;;13.13;5.28;;;9.00;99.90;;;;;;5041022;28;20057;-78
2022/11/06 06:53:55;;;;;;;15.35;6.38;;;9.00;99.90;;;;;;5045965;28;20044;-79
2022/11/06 06:56:21;;;;;;;12.45;5.63;;;9.00;99.90;;;;;;4998311;28;20095;-79
2022/11/06 06:58:47;;;;;;;14.65;5.63;;;9.00;99.90;;;;;;5054028;28;20915;-79
2022/11/06 07:01:12;;;;;;;14.27;5.57;;;9.00;99.90;;;;;;5060444;28;20037;-79
2022/11/06 07:03:38;;;;;;;15.65;5.93;;;9.00;99.90;;;;;;5031968;28;20053;-79
2022/11/06 07:06:05;;;;;;;10.95;5.30;;;9.10;99.90;;;;;;5038350;28;20068;-80
2022/11/06 07:08:32;;;;;;;18.17;5.50;;;9.10;99.90;;;;;;5044703;28;20053;-83
2022/11/06 07:11:06;;;;;;;13.93;5.30;;;9.10;99.90;;;;;;5055091;28;20045;-78
2022/11/06 07:13:33;;;;;;;18.38;5.43;;;9.10;99.90;;;;;;5046286;28;20556;-80
2022/11/06 07:16:01;;;;;;;31.50;4.72;;;9.20;99.90;;;;;;5025752;28;20057;-79
2022/11/06 07:18:26;;;;;;;15.85;4.82;;;9.20;99.90;;;;;;5030651;28;20045;-79
2022/11/06 07:20:53;;;;;;;12.85;4.82;;;9.20;99.90;;;;;;4997681;28;20072;-80
2022/11/06 07:23:18;;;;;;;16.58;5.18;;;9.30;99.90;;;;;;5030706;28;20045;-79
2022/11/06 07:25:50;;;;;;;13.60;4.78;;;9.30;99.90;;;;;;5018262;28;20545;-78
2022/11/06 07:28:16;;;;;;;14.10;5.32;;;9.30;99.90;;;;;;5047097;28;20486;-78
2022/11/06 07:30:41;;;;;;;8.85;4.10;;;9.40;99.90;;;;;;5062724;28;20045;-78
2022/11/06 07:33:07;;;;;;;12.05;4.28;;;9.40;99.90;;;;;;5051272;28;20052;-78
2022/11/06 07:35:34;;;;;;;9.80;3.97;;;9.40;99.90;;;;;;5031938;28;20060;-88
2022/11/06 07:38:05;;;;;;;14.63;4.15;;;9.50;99.90;;;;;;5040693;28;20052;-78
2022/11/06 07:40:35;;;;;;;12.10;4.40;;;9.50;99.90;;;;;;5030945;28;20161;-79
2022/11/06 07:43:05;;;;;;;10.25;4.70;;;9.50;99.90;;;;;;5048771;28;20080;-79
2022/11/06 07:45:31;;;;;;;17.65;5.10;;;9.60;99.90;;;;;;5052769;28;20119;-80
2022/11/06 07:47:57;;;;;;;9.50;3.90;;;9.60;99.90;;;;;;5048738;28;20409;-79
2022/11/06 07:50:23;;;;;;;8.30;4.15;;;9.60;99.90;;;;;;5064051;28;20057;-81
2022/11/06 07:52:49;;;;;;;15.10;4.07;;;9.70;99.90;;;;;;5048776;28;20083;-79
2022/11/06 07:55:15;;;;;;;10.88;4.18;;;9.80;99.90;;;;;;5010622;28;20586;-80
2022/11/06 07:57:40;;;;;;;10.70;4.18;;;9.80;99.90;;;;;;5036587;28;20099;-79
2022/11/06 08:00:07;;;;;;;11.63;3.67;;;9.70;99.90;;;;;;5042643;28;20495;-78
2022/11/06 08:02:32;;;;;;;14.40;4.03;;;9.70;99.90;;;;;;5030770;28;20753;-81
2022/11/06 08:04:58;;;;;;;9.55;3.33;;;9.70;99.90;;;;;;4999623;28;20045;-81
2022/11/06 08:07:24;;;;;;;11.48;4.95;;;9.70;99.90;;;;;;4997648;28;20110;-81
2022/11/06 08:09:49;;;;;;;10.43;3.58;;;9.60;99.90;;;;;;4997344;28;20084;-80
2022/11/06 08:12:15;;;;;;;14.82;4.07;;;9.60;99.90;;;;;;5034676;28;20041;-81
2022/11/06 08:14:41;;;;;;;9.65;3.63;;;9.60;99.90;;;;;;5022864;28;20053;-78
2022/11/06 08:17:07;;;;;;;14.82;4.28;;;9.60;99.90;;;;;;5021958;28;20041;-82
2022/11/06 08:19:33;;;;;;;9.20;3.63;;;9.70;99.90;;;;;;5022822;28;20446;-84
2022/11/06 08:21:58;;;;;;;10.93;3.42;;;9.70;99.90;;;;;;5037803;28;20039;-83
2022/11/06 08:24:24;;;;;;;13.05;4.43;;;9.70;99.90;;;;;;5060645;28;20042;-84
2022/11/06 08:26:50;;;;;;;10.32;3.47;;;9.70;99.90;;;;;;5035127;28;20049;-83
2022/11/06 08:29:15;;;;;;;10.63;3.53;;;9.80;99.90;;;;;;5059383;28;20045;-83
2022/11/06 08:31:41;;;;;;;10.27;3.92;;;9.70;99.90;;;;;;4996804;28;20092;-86
2022/11/06 08:34:07;;;;;;;15.95;4.03;;;9.70;99.90;;;;;;5046342;28;20119;-83
2022/11/06 08:36:44;;;;;;;8.27;3.17;;;9.70;99.90;;;;;;5049379;28;20049;-83
2022/11/06 08:39:11;;;;;;;12.60;3.30;;;9.60;99.90;;;;;;5059954;28;20561;-82
2022/11/06 08:41:38;;;;;;;11.40;3.50;;;9.60;99.90;;;;;;5059320;28;20081;-84
2022/11/06 08:44:04;;;;;;;10.68;3.10;;;9.60;99.90;;;;;;5049267;28;20049;-84
2022/11/06 08:46:30;;;;;;;12.90;3.22;;;9.60;99.90;;;;;;5032700;28;20504;-84
2022/11/06 08:48:56;;;;;;;14.45;3.88;;;9.60;99.90;;;;;;5029934;28;20049;-84
2022/11/06 08:51:22;;;;;;;11.07;3.67;;;9.60;99.90;;;;;;5036719;28;20049;-85
2022/11/06 08:53:47;;;;;;;10.43;3.58;;;9.50;99.90;;;;;;5048374;28;20048;-83
2022/11/06 08:56:13;;;;;;;14.43;4.28;;;9.40;99.90;;;;;;5049430;28;20053;-83
2022/11/06 08:58:39;;;;;;;10.15;4.47;;;9.50;99.90;;;;;;5047794;28;20055;-84
2022/11/06 09:01:05;;;;;;;11.27;4.10;;;9.50;99.90;;;;;;5032148;28;20049;-83
2022/11/06 09:03:30;;;;;;;8.52;3.35;;;9.50;99.90;;;;;;5048577;28;20118;-83
2022/11/06 09:05:56;;;;;;;12.00;3.67;;;9.50;99.90;;;;;;5064943;28;20444;-85
2022/11/06 09:08:23;;;;;;;9.20;4.05;;;9.50;99.90;;;;;;5036682;28;20080;-84
2022/11/06 09:10:49;;;;;;;7.78;3.40;;;9.60;99.90;;;;;;5040429;28;20110;-83
2022/11/06 09:13:15;;;;;;;10.07;4.10;;;9.60;99.90;;;;;;5065397;28;20052;-83
2022/11/06 09:15:40;;;;;;;10.18;3.50;;;9.70;99.90;;;;;;5032640;28;20049;-83
2022/11/06 09:18:07;;;;;;;7.20;3.38;;;9.80;99.90;;;;;;5048351;28;20033;-83
2022/11/06 09:20:32;;;;;;;14.27;3.60;;;9.90;99.90;;;;;;5032309;28;20037;-83
2022/11/06 09:23:04;;;;;;;10.45;3.95;;;10.10;99.90;;;;;;5030372;28;20052;-83
2022/11/06 09:25:30;;;;;;;7.70;3.50;;;10.30;99.90;;;;;;5044152;28;20063;-83
2022/11/06 09:27:57;;;;;;;13.27;3.40;;;10.30;99.90;;;;;;5028738;28;20041;-83
2022/11/06 09:30:24;;;;;;;12.23;3.60;;;10.40;99.90;;;;;;5053603;28;20049;-84
2022/11/06 09:32:52;;;;;;;15.10;3.33;;;10.50;99.90;;;;;;5047330;28;20048;-83
2022/11/06 09:35:20;;;;;;;10.88;3.80;;;10.70;99.90;;;;;;5065369;28;20083;-83
2022/11/06 09:37:45;;;;;;;8.20;3.15;;;10.90;99.90;;;;;;5031828;28;20621;-83
2022/11/06 09:40:26;;;;;;;8.48;3.55;;;11.10;99.90;;;;;;5048052;28;20047;-85
2022/11/06 09:43:18;;;;;;;10.25;3.40;;;11.30;99.90;;;;;;5043974;28;20394;-83
2022/11/06 09:45:45;;;;;;;9.85;2.65;;;11.40;99.90;;;;;;5019010;28;20206;-83
2022/11/06 09:48:40;;;;;;;7.40;2.70;;;11.50;99.90;;;;;;5055653;28;20132;-83
2022/11/06 09:51:28;;;;;;;9.32;2.20;;;11.60;99.90;;;;;;5046058;28;20490;-83
2022/11/06 09:54:06;;;;;;;8.13;2.80;;;11.70;99.90;;;;;;5056680;28;20052;-82
2022/11/06 09:56:35;;;;;;;10.15;2.63;;;11.80;99.90;;;;;;5059549;28;20445;-85
2022/11/06 09:59:04;;;;;;;9.40;2.50;;;11.80;99.90;;;;;;5035313;28;20049;-83
2022/11/06 10:01:54;;;;;;;8.75;3.05;;;11.70;99.90;;;;;;5036987;28;20127;-83
2022/11/06 10:04:53;;;;;;;5.80;2.55;;;11.60;99.90;;;;;;5049840;28;20046;-83
2022/11/06 10:07:35;;;;;;;7.68;2.10;;;11.50;99.90;;;;;;5045662;28;20516;-82
2022/11/06 10:10:03;;;;;;;6.70;1.90;;;11.40;99.90;;;;;;5039029;28;20406;-84
2022/11/06 10:12:47;;;;;;;8.50;2.20;;;11.30;99.90;;;;;;5023982;28;20041;-83
2022/11/06 10:15:25;;;;;;;7.70;2.58;;;11.20;99.90;;;;;;5020230;28;20053;-84
2022/11/06 10:18:16;;;;;;;7.68;2.40;;;11.20;99.90;;;;;;5032780;28;20045;-84
2022/11/06 10:21:01;;;;;;;9.82;2.72;;;11.20;99.90;;;;;;5035185;28;20080;-87
2022/11/06 10:23:43;;;;;;;9.57;2.78;;;11.20;99.90;;;;;;5034562;28;20080;-85
2022/11/06 10:26:22;;;;;;;6.68;2.08;;;11.20;99.90;;;;;;5032407;28;20049;-84
2022/11/06 10:29:00;;;;;;;7.10;2.20;;;11.20;99.90;;;;;;5034476;28;20056;-85
2022/11/06 10:31:29;;;;;;;8.15;2.92;;;11.20;99.90;;;;;;5033442;28;20041;-86
2022/11/06 10:34:16;;;;;;;10.85;3.75;;;11.20;99.90;;;;;;5042914;28;20433;-88
2022/11/06 10:36:50;;;;;;;9.52;2.53;;;11.20;99.90;;;;;;5063218;28;20045;-86
2022/11/06 10:39:22;;;;;;;7.63;2.13;;;11.10;99.90;;;;;;5050992;28;20084;-85
2022/11/06 10:41:56;;;;;;;7.20;2.55;;;11.10;99.90;;;;;;5029210;28;20041;-86
2022/11/06 10:44:41;;;;;;;9.43;2.60;;;11.00;99.90;;;;;;5043103;28;20044;-85
2022/11/06 10:47:19;;;;;;;11.80;2.75;;;11.00;99.90;;;;;;5037209;28;20042;-85
2022/11/06 10:49:50;;;;;;;8.77;2.83;;;11.10;99.90;;;;;;5063780;28;21486;-87
2022/11/06 10:52:44;;;;;;;6.68;3.22;;;11.10;99.90;;;;;;5037217;28;20041;-84
2022/11/06 10:55:46;;;;;;;7.63;2.78;;;11.20;99.90;;;;;;5049450;28;20076;-84
2022/11/06 10:58:13;;;;;;;11.10;4.20;;;11.20;99.90;;;;;;5049442;28;20080;-83
2022/11/06 11:00:39;;;;;;;15.73;3.92;;;11.20;99.90;;;;;;5055033;28;20049;-82
2022/11/06 11:03:22;;;;;;;9.63;3.65;;;11.30;99.90;;;;;;5061208;28;20098;-81
2022/11/06 11:05:48;;;;;;;11.02;4.20;;;11.20;99.90;;;;;;5049756;28;20490;-81
2022/11/06 11:08:34;;;;;;;12.40;3.70;;;11.20;99.90;;;;;;5052024;28;20052;-81
2022/11/06 11:11:12;;;;;;;17.77;4.50;;;11.20;99.90;;;;;;5034942;28;20528;-84
2022/11/06 11:13:58;;;;;;;10.80;4.40;;;11.20;99.90;;;;;;5048692;28;20049;-84
2022/11/06 11:16:28;;;;;;;15.13;5.50;;;11.20;99.90;;;;;;5018963;28;20753;-87
2022/11/06 11:18:53;;;;;;;10.27;4.35;;;11.30;99.90;;;;;;5058239;28;20045;-90
2022/11/06 11:21:19;;;;;;;16.08;6.25;;;11.50;99.90;;;;;;5010967;28;20060;-88
2022/11/06 11:24:03;;;;;;;13.57;5.75;;;11.50;99.90;;;;;;5049675;28;20051;-89
2022/11/06 11:26:31;;;;;;;12.82;4.60;;;11.40;99.90;;;;;;5049453;28;20056;-86
2022/11/06 11:28:59;;;;;;;13.07;4.60;;;11.40;99.90;;;;;;5050155;28;20471;-89
2022/11/06 11:31:35;;;;;;;12.50;5.35;;;11.40;99.90;;;;;;5043410;28;20513;-88
2022/11/06 11:34:17;;;;;;;14.17;5.57;;;11.40;99.90;;;;;;5049314;28;20052;-88
2022/11/06 11:36:49;;;;;;;7.45;4.05;;;11.40;99.90;;;;;;5049013;28;20310;-87
2022/11/06 11:39:17;;;;;;;7.93;3.90;;;11.40;99.90;;;;;;5026984;28;20059;-89
2022/11/06 11:41:43;;;;;;;9.38;4.00;;;11.30;99.90;;;;;;5037070;28;20152;-89
2022/11/06 11:44:17;;;;;;;7.55;3.63;;;11.30;99.90;;;;;;5036121;28;20467;-90
2022/11/06 11:46:53;;;;;;;8.73;4.05;;;11.40;99.90;;;;;;5050272;28;20129;-87
2022/11/06 11:49:33;;;;;;;9.07;3.53;;;11.40;99.90;;;;;;5017993;28;20176;-89
2022/11/06 11:52:09;;;;;;;10.43;3.63;;;11.50;99.90;;;;;;5011519;28;20059;-87
2022/11/06 11:54:35;;;;;;;8.88;3.58;;;11.60;99.90;;;;;;5043393;28;20044;-86
2022/11/06 11:57:03;;;;;;;11.80;3.90;;;11.80;99.90;;;;;;5043350;28;20371;-86
2022/11/06 11:59:44;;;;;;;13.52;3.70;;;11.90;99.90;;;;;;5020806;28;20054;-87
2022/11/06 12:02:23;;;;;;;12.82;3.55;;;11.90;99.90;;;;;;5047443;28;20048;-86
2022/11/06 12:05:11;;;;;;;9.25;2.60;;;11.90;99.90;;;;;;5028360;28;20072;-85
2022/11/06 12:07:43;;;;;;;9.32;2.85;;;11.90;99.90;;;;;;5049287;28;20045;-87
2022/11/06 12:10:30;;;;;;;6.13;2.30;;;11.90;99.90;;;;;;5037333;28;20045;-87
2022/11/06 12:12:58;;;;;;;10.32;5.20;;;11.90;99.90;;;;;;5026614;28;20037;-86
2022/11/06 12:15:26;;;;;;;18.92;3.63;;;12.00;99.90;;;;;;5022534;28;20055;-87
2022/11/06 12:17:53;;;;;;;6.82;2.60;;;12.00;99.90;;;;;;5057902;28;20132;-86
2022/11/06 12:20:33;;;;;;;11.07;3.75;;;12.10;99.90;;;;;;5051380;28;20114;-86
2022/11/06 12:23:00;;;;;;;5.55;2.92;;;12.10;99.90;;;;;;5039422;28;20087;-89
2022/11/06 12:25:38;;;;;;;5.93;2.03;;;12.10;99.90;;;;;;5049145;28;20569;-87
2022/11/06 12:28:15;;;;;;;7.22;2.33;;;12.20;99.90;;;;;;5035727;28;20048;-87
2022/11/06 12:30:44;;;;;;;8.70;2.30;;;12.30;99.90;;;;;;5048909;28;20056;-87
2022/11/06 12:33:16;;;;;;;9.88;2.80;;;12.40;99.90;;;;;;5050496;28;20068;-90
2022/11/06 12:35:47;;;;;;;6.85;2.00;;;12.40;99.90;;;;;;5051086;28;20053;-86
2022/11/06 12:38:20;;;;;;;7.50;2.35;;;12.40;99.90;;;;;;5043045;28;20056;-87
2022/11/06 12:40:56;;;;;;;5.10;2.17;;;12.50;99.90;;;;;;5067089;28;20060;-87
2022/11/06 12:43:42;;;;;;;;;;;12.50;99.90;;;;;;5031202;28;20045;-86
2022/11/06 12:46:26;;;;;;;8.63;2.55;;;12.60;99.90;;;;;;5032527;28;20304;-88
2022/11/06 12:49:13;;;;;;;8.80;2.35;;;12.70;99.90;;;;;;5038157;28;20056;-87
2022/11/06 12:52:00;;;;;;;7.28;2.28;;;12.70;99.90;;;;;;5052399;28;20059;-87
2022/11/06 12:54:50;;;;;;;7.32;2.50;;;12.40;99.90;;;;;;5049977;28;20045;-88
2022/11/06 12:57:45;;;;;;;5.40;2.53;;;12.10;99.90;;;;;;5049784;28;20079;-88
2022/11/06 13:00:13;;;;;;;9.73;2.45;;;11.90;99.90;;;;;;5066805;28;20044;-87
2022/11/06 13:02:53;;;;;;;7.30;3.05;;;11.80;99.90;;;;;;5054341;28;20041;-87
2022/11/06 13:05:27;;;;;;;11.27;3.10;;;11.70;99.90;;;;;;5037771;28;20074;-88
2022/11/06 13:07:56;;;;;;;10.45;2.88;;;11.60;99.90;;;;;;5064023;28;20143;-87
2022/11/06 13:10:22;;;;;;;9.77;2.50;;;11.60;99.90;;;;;;5069993;28;20036;-87
2022/11/06 13:13:05;;;;;;;4.18;2.13;;;11.50;99.90;;;;;;5048546;28;20118;-87
2022/11/06 13:16:09;;;;;;;6.13;2.85;;;11.50;99.90;;;;;;5033001;28;20141;-87
2022/11/06 13:18:50;;;;;;;6.35;2.22;;;11.50;99.90;;;;;;5037144;28;20056;-88
2022/11/06 13:21:43;;;;;;;7.60;2.30;;;11.40;99.90;;;;;;5049431;28;20040;-85